sensor_id;sensor_type;location;lat;lon;timestamp;temperature;humidity
44190;DHT22;29856;52.144;5.430;2023-03-14T00:00:32;11.60;99.90
44190;DHT22;29856;52.144;5.430;2023-03-14T00:02:57;11.60;99.90
44190;DHT22;29856;52.144;5.430;2023-03-14T00:05:23;11.60;99.90
44190;DHT22;29856;52.144;5.430;2023-03-14T00:07:48;11.60;99.90
44190;DHT22;29856;52.144;5.430;2023-03-14T00:10:14;11.60;99.90
44190;DHT22;29856;52.144;5.430;2023-03-14T00:12:43;11.60;99.90
44190;DHT22;29856;52.144;5.430;2023-03-14T00:15:10;11.50;99.90
44190;DHT22;29856;52.144;5.430;2023-03-14T00:17:36;11.50;99.90
44190;DHT22;29856;52.144;5.430;2023-03-14T00:20:04;11.50;99.90
44190;DHT22;29856;52.144;5.430;2023-03-14T00:22:31;11.50;99.90
44190;DHT22;29856;52.144;5.430;2023-03-14T00:24:56;11.50;99.90
44190;DHT22;29856;52.144;5.430;2023-03-14T00:27:22;11.40;99.90
44190;DHT22;29856;52.144;5.430;2023-03-14T00:29:47;11.40;99.90
44190;DHT22;29856;52.144;5.430;2023-03-14T00:32:22;11.40;99.90
44190;DHT22;29856;52.144;5.430;2023-03-14T00:34:47;11.40;99.90
44190;DHT22;29856;52.144;5.430;2023-03-14T00:37:13;11.40;99.90
44190;DHT22;29856;52.144;5.430;2023-03-14T00:39:39;11.40;99.90
44190;DHT22;29856;52.144;5.430;2023-03-14T00:42:04;11.40;99.90
44190;DHT22;29856;52.144;5.430;2023-03-14T00:44:30;11.30;99.90
44190;DHT22;29856;52.144;5.430;2023-03-14T00:46:55;11.30;99.90
44190;DHT22;29856;52.144;5.430;2023-03-14T00:49:21;11.30;99.90
44190;DHT22;29856;52.144;5.430;2023-03-14T00:51:46;11.30;99.90
44190;DHT22;29856;52.144;5.430;2023-03-14T00:54:12;11.30;99.90
44190;DHT22;29856;52.144;5.430;2023-03-14T00:56:37;11.30;99.90
44190;DHT22;29856;52.144;5.430;2023-03-14T00:59:03;11.30;99.90
44190;DHT22;29856;52.144;5.430;2023-03-14T01:01:28;11.30;99.90
44190;DHT22;29856;52.144;5.430;2023-03-14T01:03:55;11.20;99.90
44190;DHT22;29856;52.144;5.430;2023-03-14T01:06:23;11.30;99.90
44190;DHT22;29856;52.144;5.430;2023-03-14T01:08:49;11.30;99.90
44190;DHT22;29856;52.144;5.430;2023-03-14T01:11:18;11.20;99.90
44190;DHT22;29856;52.144;5.430;2023-03-14T01:13:44;11.20;99.90
44190;DHT22;29856;52.144;5.430;2023-03-14T01:16:11;11.20;99.90
44190;DHT22;29856;52.144;5.430;2023-03-14T01:18:38;11.20;99.90
44190;DHT22;29856;52.144;5.430;2023-03-14T01:21:11;11.10;99.90
44190;DHT22;29856;52.144;5.430;2023-03-14T01:23:37;11.00;99.90
44190;DHT22;29856;52.144;5.430;2023-03-14T01:26:02;11.00;99.90
44190;DHT22;29856;52.144;5.430;2023-03-14T01:28:28;10.90;99.90
44190;DHT22;29856;52.144;5.430;2023-03-14T01:30:53;10.90;99.90
44190;DHT22;29856;52.144;5.430;2023-03-14T01:33:19;10.90;99.90
44190;DHT22;29856;52.144;5.430;2023-03-14T01:35:44;10.80;99.90
44190;DHT22;29856;52.144;5.430;2023-03-14T01:38:10;10.70;99.90
44190;DHT22;29856;52.144;5.430;2023-03-14T01:40:42;10.70;99.90
44190;DHT22;29856;52.144;5.430;2023-03-14T01:43:19;10.70;99.90
44190;DHT22;29856;52.144;5.430;2023-03-14T01:48:38;10.60;99.90
44190;DHT22;29856;52.144;5.430;2023-03-14T01:51:11;10.60;99.90
44190;DHT22;29856;52.144;5.430;2023-03-14T01:53:39;10.60;99.90
44190;DHT22;29856;52.144;5.430;2023-03-14T01:56:06;10.60;99.90
44190;DHT22;29856;52.144;5.430;2023-03-14T01:58:33;10.60;99.90
44190;DHT22;29856;52.144;5.430;2023-03-14T02:00:59;10.60;99.90
44190;DHT22;29856;52.144;5.430;2023-03-14T02:03:27;10.70;99.90
44190;DHT22;29856;52.144;5.430;2023-03-14T02:05:56;10.60;99.90
44190;DHT22;29856;52.144;5.430;2023-03-14T02:08:23;10.60;99.90
44190;DHT22;29856;52.144;5.430;2023-03-14T02:10:49;10.60;99.90
44190;DHT22;29856;52.144;5.430;2023-03-14T02:13:17;10.60;99.90
44190;DHT22;29856;52.144;5.430;2023-03-14T02:15:43;10.60;99.90
44190;DHT22;29856;52.144;5.430;2023-03-14T02:18:09;10.60;99.90
44190;DHT22;29856;52.144;5.430;2023-03-14T02:26:11;10.60;99.90
44190;DHT22;29856;52.144;5.430;2023-03-14T02:28:38;10.60;99.90
44190;DHT22;29856;52.144;5.430;2023-03-14T02:31:04;10.60;99.90
44190;DHT22;29856;52.144;5.430;2023-03-14T02:33:30;10.60;99.90
44190;DHT22;29856;52.144;5.430;2023-03-14T02:36:02;10.60;99.90
44190;DHT22;29856;52.144;5.430;2023-03-14T02:41:00;10.50;99.90
44190;DHT22;29856;52.144;5.430;2023-03-14T02:43:26;10.50;99.90
44190;DHT22;29856;52.144;5.430;2023-03-14T02:45:52;10.50;99.90
44190;DHT22;29856;52.144;5.430;2023-03-14T02:48:19;10.50;99.90
44190;DHT22;29856;52.144;5.430;2023-03-14T02:50:47;10.60;99.90
44190;DHT22;29856;52.144;5.430;2023-03-14T02:53:19;10.50;99.90
44190;DHT22;29856;52.144;5.430;2023-03-14T02:55:47;10.50;99.90
44190;DHT22;29856;52.144;5.430;2023-03-14T02:58:13;10.60;99.90
44190;DHT22;29856;52.144;5.430;2023-03-14T03:00:38;10.60;99.90
44190;DHT22;29856;52.144;5.430;2023-03-14T03:03:04;10.60;99.90
44190;DHT22;29856;52.144;5.430;2023-03-14T03:05:29;10.60;99.90
44190;DHT22;29856;52.144;5.430;2023-03-14T03:07:55;10.60;99.90
44190;DHT22;29856;52.144;5.430;2023-03-14T03:10:20;10.60;99.90
44190;DHT22;29856;52.144;5.430;2023-03-14T03:12:46;10.60;99.90
44190;DHT22;29856;52.144;5.430;2023-03-14T03:15:11;10.60;99.90
44190;DHT22;29856;52.144;5.430;2023-03-14T03:17:36;10.60;99.90
44190;DHT22;29856;52.144;5.430;2023-03-14T03:20:02;10.60;99.90
44190;DHT22;29856;52.144;5.430;2023-03-14T03:22:28;10.70;99.90
44190;DHT22;29856;52.144;5.430;2023-03-14T03:24:53;10.70;99.90
44190;DHT22;29856;52.144;5.430;2023-03-14T03:27:19;10.60;99.90
44190;DHT22;29856;52.144;5.430;2023-03-14T03:29:44;10.60;99.90
44190;DHT22;29856;52.144;5.430;2023-03-14T03:32:10;10.50;99.90
44190;DHT22;29856;52.144;5.430;2023-03-14T03:34:35;10.60;99.90
44190;DHT22;29856;52.144;5.430;2023-03-14T03:37:01;10.50;99.90
44190;DHT22;29856;52.144;5.430;2023-03-14T03:39:26;10.60;99.90
44190;DHT22;29856;52.144;5.430;2023-03-14T03:41:52;10.60;99.90
44190;DHT22;29856;52.144;5.430;2023-03-14T03:44:17;10.60;99.90
44190;DHT22;29856;52.144;5.430;2023-03-14T03:46:43;10.60;99.90
44190;DHT22;29856;52.144;5.430;2023-03-14T03:49:08;10.60;99.90
44190;DHT22;29856;52.144;5.430;2023-03-14T03:51:34;10.60;99.90
44190;DHT22;29856;52.144;5.430;2023-03-14T03:53:59;10.60;99.90
44190;DHT22;29856;52.144;5.430;2023-03-14T03:56:25;10.60;99.90
44190;DHT22;29856;52.144;5.430;2023-03-14T03:58:50;10.60;99.90
44190;DHT22;29856;52.144;5.430;2023-03-14T04:01:16;10.60;99.90
44190;DHT22;29856;52.144;5.430;2023-03-14T04:03:41;10.60;99.90
44190;DHT22;29856;52.144;5.430;2023-03-14T04:06:10;10.70;99.90
44190;DHT22;29856;52.144;5.430;2023-03-14T04:08:35;10.70;99.90
44190;DHT22;29856;52.144;5.430;2023-03-14T04:11:02;10.70;99.90
44190;DHT22;29856;52.144;5.430;2023-03-14T04:13:28;10.70;99.90
44190;DHT22;29856;52.144;5.430;2023-03-14T04:15:54;10.70;99.90
44190;DHT22;29856;52.144;5.430;2023-03-14T04:18:21;10.70;99.90
44190;DHT22;29856;52.144;5.430;2023-03-14T04:20:51;10.70;99.90
44190;DHT22;29856;52.144;5.430;2023-03-14T04:23:17;10.70;99.90
44190;DHT22;29856;52.144;5.430;2023-03-14T04:25:42;10.70;99.90
44190;DHT22;29856;52.144;5.430;2023-03-14T04:28:08;10.80;99.90
44190;DHT22;29856;52.144;5.430;2023-03-14T04:30:34;10.80;99.90
44190;DHT22;29856;52.144;5.430;2023-03-14T04:32:59;10.80;99.90
44190;DHT22;29856;52.144;5.430;2023-03-14T04:35:25;10.80;99.90
44190;DHT22;29856;52.144;5.430;2023-03-14T04:37:50;10.80;99.90
44190;DHT22;29856;52.144;5.430;2023-03-14T04:40:16;10.80;99.90
44190;DHT22;29856;52.144;5.430;2023-03-14T04:42:41;10.80;99.90
44190;DHT22;29856;52.144;5.430;2023-03-14T04:45:07;10.80;99.90
44190;DHT22;29856;52.144;5.430;2023-03-14T04:47:33;10.80;99.90
44190;DHT22;29856;52.144;5.430;2023-03-14T04:49:59;10.80;99.90
44190;DHT22;29856;52.144;5.430;2023-03-14T04:52:25;10.90;99.90
44190;DHT22;29856;52.144;5.430;2023-03-14T04:54:51;10.90;99.90
44190;DHT22;29856;52.144;5.430;2023-03-14T04:57:16;10.80;99.90
44190;DHT22;29856;52.144;5.430;2023-03-14T04:59:42;10.90;99.90
44190;DHT22;29856;52.144;5.430;2023-03-14T05:02:07;10.90;99.90
44190;DHT22;29856;52.144;5.430;2023-03-14T05:04:33;10.80;99.90
44190;DHT22;29856;52.144;5.430;2023-03-14T05:07:01;10.90;99.90
44190;DHT22;29856;52.144;5.430;2023-03-14T05:09:27;10.90;99.90
44190;DHT22;29856;52.144;5.430;2023-03-14T05:11:52;10.90;99.90
44190;DHT22;29856;52.144;5.430;2023-03-14T05:14:18;10.90;99.90
44190;DHT22;29856;52.144;5.430;2023-03-14T05:16:43;10.80;99.90
44190;DHT22;29856;52.144;5.430;2023-03-14T05:19:10;10.80;99.90
44190;DHT22;29856;52.144;5.430;2023-03-14T05:21:35;10.80;99.90
44190;DHT22;29856;52.144;5.430;2023-03-14T05:24:01;10.70;99.90
44190;DHT22;29856;52.144;5.430;2023-03-14T05:26:26;10.70;99.90
44190;DHT22;29856;52.144;5.430;2023-03-14T05:28:52;10.70;99.90
44190;DHT22;29856;52.144;5.430;2023-03-14T05:31:17;10.70;99.90
44190;DHT22;29856;52.144;5.430;2023-03-14T05:33:43;10.70;99.90
44190;DHT22;29856;52.144;5.430;2023-03-14T05:36:08;10.70;99.90
44190;DHT22;29856;52.144;5.430;2023-03-14T05:38:34;10.70;99.90
44190;DHT22;29856;52.144;5.430;2023-03-14T05:40:59;10.60;99.90
44190;DHT22;29856;52.144;5.430;2023-03-14T05:43:25;10.60;99.90
44190;DHT22;29856;52.144;5.430;2023-03-14T05:45:50;10.60;99.90
44190;DHT22;29856;52.144;5.430;2023-03-14T05:48:16;10.60;99.90
44190;DHT22;29856;52.144;5.430;2023-03-14T05:50:41;10.60;99.90
44190;DHT22;29856;52.144;5.430;2023-03-14T05:53:07;10.60;99.90
44190;DHT22;29856;52.144;5.430;2023-03-14T05:55:33;10.50;99.90
44190;DHT22;29856;52.144;5.430;2023-03-14T05:57:58;10.50;99.90
44190;DHT22;29856;52.144;5.430;2023-03-14T06:00:23;10.50;99.90
44190;DHT22;29856;52.144;5.430;2023-03-14T06:02:49;10.50;99.90
44190;DHT22;29856;52.144;5.430;2023-03-14T06:05:15;10.50;99.90
44190;DHT22;29856;52.144;5.430;2023-03-14T06:07:40;10.50;99.90
44190;DHT22;29856;52.144;5.430;2023-03-14T06:10:06;10.40;99.90
44190;DHT22;29856;52.144;5.430;2023-03-14T06:12:32;10.50;99.90
44190;DHT22;29856;52.144;5.430;2023-03-14T06:14:57;10.50;99.90
44190;DHT22;29856;52.144;5.430;2023-03-14T06:17:23;10.40;99.90
44190;DHT22;29856;52.144;5.430;2023-03-14T06:19:48;10.40;99.90
44190;DHT22;29856;52.144;5.430;2023-03-14T06:22:14;10.40;99.90
44190;DHT22;29856;52.144;5.430;2023-03-14T06:24:40;10.40;99.90
44190;DHT22;29856;52.144;5.430;2023-03-14T06:27:05;10.40;99.90
44190;DHT22;29856;52.144;5.430;2023-03-14T06:29:31;10.40;99.90
44190;DHT22;29856;52.144;5.430;2023-03-14T06:31:56;10.40;99.90
44190;DHT22;29856;52.144;5.430;2023-03-14T06:34:22;10.40;99.90
44190;DHT22;29856;52.144;5.430;2023-03-14T06:36:47;10.40;99.90
44190;DHT22;29856;52.144;5.430;2023-03-14T06:39:13;10.40;99.90
44190;DHT22;29856;52.144;5.430;2023-03-14T06:41:38;10.30;99.90
44190;DHT22;29856;52.144;5.430;2023-03-14T06:44:05;10.30;99.90
44190;DHT22;29856;52.144;5.430;2023-03-14T06:46:30;10.30;99.90
44190;DHT22;29856;52.144;5.430;2023-03-14T06:48:56;10.30;99.90
44190;DHT22;29856;52.144;5.430;2023-03-14T06:51:22;10.00;99.90
44190;DHT22;29856;52.144;5.430;2023-03-14T06:53:47;9.70;99.90
44190;DHT22;29856;52.144;5.430;2023-03-14T06:56:13;9.70;99.90
44190;DHT22;29856;52.144;5.430;2023-03-14T06:58:38;9.50;99.90
44190;DHT22;29856;52.144;5.430;2023-03-14T07:01:04;9.60;99.90
44190;DHT22;29856;52.144;5.430;2023-03-14T07:03:30;9.60;99.90
44190;DHT22;29856;52.144;5.430;2023-03-14T07:05:55;9.50;99.90
44190;DHT22;29856;52.144;5.430;2023-03-14T07:08:21;9.40;99.90
44190;DHT22;29856;52.144;5.430;2023-03-14T07:10:46;9.20;99.90
44190;DHT22;29856;52.144;5.430;2023-03-14T07:13:11;9.20;99.90
44190;DHT22;29856;52.144;5.430;2023-03-14T07:15:37;9.00;99.90
44190;DHT22;29856;52.144;5.430;2023-03-14T07:18:02;8.80;99.90
44190;DHT22;29856;52.144;5.430;2023-03-14T07:20:28;9.00;99.90
44190;DHT22;29856;52.144;5.430;2023-03-14T07:22:54;8.90;99.90
44190;DHT22;29856;52.144;5.430;2023-03-14T07:25:19;8.80;99.90
44190;DHT22;29856;52.144;5.430;2023-03-14T07:27:46;8.90;99.90
44190;DHT22;29856;52.144;5.430;2023-03-14T07:30:12;8.90;99.90
44190;DHT22;29856;52.144;5.430;2023-03-14T07:32:38;8.60;99.90
44190;DHT22;29856;52.144;5.430;2023-03-14T07:35:04;8.60;99.90
44190;DHT22;29856;52.144;5.430;2023-03-14T07:37:29;8.50;99.90
44190;DHT22;29856;52.144;5.430;2023-03-14T07:39:55;8.50;99.90
44190;DHT22;29856;52.144;5.430;2023-03-14T07:42:20;8.30;99.90
44190;DHT22;29856;52.144;5.430;2023-03-14T07:44:46;8.20;99.90
44190;DHT22;29856;52.144;5.430;2023-03-14T07:47:12;8.20;99.90
44190;DHT22;29856;52.144;5.430;2023-03-14T07:49:37;8.10;99.90
44190;DHT22;29856;52.144;5.430;2023-03-14T07:52:03;8.20;99.90
44190;DHT22;29856;52.144;5.430;2023-03-14T07:54:28;8.20;99.90
44190;DHT22;29856;52.144;5.430;2023-03-14T07:56:54;8.10;99.90
44190;DHT22;29856;52.144;5.430;2023-03-14T07:59:19;8.10;99.90
44190;DHT22;29856;52.144;5.430;2023-03-14T08:01:45;8.00;99.90
44190;DHT22;29856;52.144;5.430;2023-03-14T08:04:10;8.00;99.90
44190;DHT22;29856;52.144;5.430;2023-03-14T08:06:36;7.50;99.90
44190;DHT22;29856;52.144;5.430;2023-03-14T08:09:03;7.10;99.90
44190;DHT22;29856;52.144;5.430;2023-03-14T08:11:28;7.10;99.90
44190;DHT22;29856;52.144;5.430;2023-03-14T08:13:54;6.90;99.90
44190;DHT22;29856;52.144;5.430;2023-03-14T08:16:20;6.80;99.90
44190;DHT22;29856;52.144;5.430;2023-03-14T08:18:46;6.80;99.90
44190;DHT22;29856;52.144;5.430;2023-03-14T08:21:11;6.90;99.90
44190;DHT22;29856;52.144;5.430;2023-03-14T08:23:37;6.70;99.90
44190;DHT22;29856;52.144;5.430;2023-03-14T08:26:02;6.60;99.90
44190;DHT22;29856;52.144;5.430;2023-03-14T08:28:28;6.50;99.90
44190;DHT22;29856;52.144;5.430;2023-03-14T08:30:54;6.40;99.90
44190;DHT22;29856;52.144;5.430;2023-03-14T08:33:20;6.50;99.90
44190;DHT22;29856;52.144;5.430;2023-03-14T08:35:45;6.30;99.90
44190;DHT22;29856;52.144;5.430;2023-03-14T08:38:11;6.30;99.90
44190;DHT22;29856;52.144;5.430;2023-03-14T08:40:36;6.50;99.90
44190;DHT22;29856;52.144;5.430;2023-03-14T08:43:02;6.40;99.90
44190;DHT22;29856;52.144;5.430;2023-03-14T08:45:27;6.60;99.90
44190;DHT22;29856;52.144;5.430;2023-03-14T08:47:53;6.60;99.90
44190;DHT22;29856;52.144;5.430;2023-03-14T08:50:18;6.60;99.90
44190;DHT22;29856;52.144;5.430;2023-03-14T08:52:43;6.60;99.90
44190;DHT22;29856;52.144;5.430;2023-03-14T08:55:10;6.70;99.90
44190;DHT22;29856;52.144;5.430;2023-03-14T08:57:35;6.80;99.90
44190;DHT22;29856;52.144;5.430;2023-03-14T09:00:01;6.70;99.90
44190;DHT22;29856;52.144;5.430;2023-03-14T09:02:26;6.60;99.90
44190;DHT22;29856;52.144;5.430;2023-03-14T09:04:52;6.60;99.90
44190;DHT22;29856;52.144;5.430;2023-03-14T09:07:18;6.80;99.90
44190;DHT22;29856;52.144;5.430;2023-03-14T09:09:45;6.60;99.90
44190;DHT22;29856;52.144;5.430;2023-03-14T09:12:10;6.70;99.90
44190;DHT22;29856;52.144;5.430;2023-03-14T09:14:36;6.80;99.90
44190;DHT22;29856;52.144;5.430;2023-03-14T09:17:02;6.80;99.90
44190;DHT22;29856;52.144;5.430;2023-03-14T09:19:27;6.80;99.90
44190;DHT22;29856;52.144;5.430;2023-03-14T09:21:54;6.90;99.90
44190;DHT22;29856;52.144;5.430;2023-03-14T09:24:19;6.90;99.90
44190;DHT22;29856;52.144;5.430;2023-03-14T09:26:45;6.90;99.90
44190;DHT22;29856;52.144;5.430;2023-03-14T09:29:10;6.80;99.90
44190;DHT22;29856;52.144;5.430;2023-03-14T09:31:36;6.80;99.90
44190;DHT22;29856;52.144;5.430;2023-03-14T09:34:01;6.80;99.90
44190;DHT22;29856;52.144;5.430;2023-03-14T09:36:27;6.90;99.90
44190;DHT22;29856;52.144;5.430;2023-03-14T09:38:52;7.00;99.90
44190;DHT22;29856;52.144;5.430;2023-03-14T09:41:22;7.00;99.90
44190;DHT22;29856;52.144;5.430;2023-03-14T09:43:59;6.90;99.90
44190;DHT22;29856;52.144;5.430;2023-03-14T09:46:26;7.00;99.90
44190;DHT22;29856;52.144;5.430;2023-03-14T09:48:52;7.10;99.90
44190;DHT22;29856;52.144;5.430;2023-03-14T09:51:20;7.20;99.90
44190;DHT22;29856;52.144;5.430;2023-03-14T09:53:48;7.10;99.90
44190;DHT22;29856;52.144;5.430;2023-03-14T09:56:25;7.20;99.90
44190;DHT22;29856;52.144;5.430;2023-03-14T09:59:12;7.20;99.90
44190;DHT22;29856;52.144;5.430;2023-03-14T10:01:38;7.20;99.90
44190;DHT22;29856;52.144;5.430;2023-03-14T10:04:12;7.40;99.90
44190;DHT22;29856;52.144;5.430;2023-03-14T10:06:39;7.30;99.90
44190;DHT22;29856;52.144;5.430;2023-03-14T10:09:05;7.40;99.90
44190;DHT22;29856;52.144;5.430;2023-03-14T10:11:30;7.40;99.90
44190;DHT22;29856;52.144;5.430;2023-03-14T10:16:34;7.20;99.90
44190;DHT22;29856;52.144;5.430;2023-03-14T10:19:26;7.30;99.90
44190;DHT22;29856;52.144;5.430;2023-03-14T10:21:53;7.00;99.90
44190;DHT22;29856;52.144;5.430;2023-03-14T10:26:55;6.70;99.90
44190;DHT22;29856;52.144;5.430;2023-03-14T10:29:21;6.80;99.90
44190;DHT22;29856;52.144;5.430;2023-03-14T10:32:04;7.00;99.90
44190;DHT22;29856;52.144;5.430;2023-03-14T10:34:34;7.20;99.90
44190;DHT22;29856;52.144;5.430;2023-03-14T10:37:16;7.10;99.90
44190;DHT22;29856;52.144;5.430;2023-03-14T10:39:48;7.20;99.90
44190;DHT22;29856;52.144;5.430;2023-03-14T10:42:38;7.00;99.90
44190;DHT22;29856;52.144;5.430;2023-03-14T10:45:52;7.00;99.90
44190;DHT22;29856;52.144;5.430;2023-03-14T10:47:51;7.10;99.90
44190;DHT22;29856;52.144;5.430;2023-03-14T10:52:53;7.20;99.90
44190;DHT22;29856;52.144;5.430;2023-03-14T10:55:18;7.30;99.90
44190;DHT22;29856;52.144;5.430;2023-03-14T10:57:44;7.20;99.90
44190;DHT22;29856;52.144;5.430;2023-03-14T11:00:21;7.20;99.90
44190;DHT22;29856;52.144;5.430;2023-03-14T11:03:12;7.00;99.90
44190;DHT22;29856;52.144;5.430;2023-03-14T11:06:01;7.00;99.90
44190;DHT22;29856;52.144;5.430;2023-03-14T11:08:59;7.10;99.90
44190;DHT22;29856;52.144;5.430;2023-03-14T11:11:29;7.20;99.90
44190;DHT22;29856;52.144;5.430;2023-03-14T11:14:36;7.10;99.90
44190;DHT22;29856;52.144;5.430;2023-03-14T11:17:23;7.30;99.90
44190;DHT22;29856;52.144;5.430;2023-03-14T11:20:24;7.30;99.90
44190;DHT22;29856;52.144;5.430;2023-03-14T11:25:52;7.60;99.90
44190;DHT22;29856;52.144;5.430;2023-03-14T11:28:38;7.70;99.90
44190;DHT22;29856;52.144;5.430;2023-03-14T11:31:16;8.00;99.90
44190;DHT22;29856;52.144;5.430;2023-03-14T11:34:15;8.10;99.90
44190;DHT22;29856;52.144;5.430;2023-03-14T11:39:20;7.70;99.90
44190;DHT22;29856;52.144;5.430;2023-03-14T11:41:51;7.80;99.90
44190;DHT22;29856;52.144;5.430;2023-03-14T11:44:25;7.90;99.90
44190;DHT22;29856;52.144;5.430;2023-03-14T11:47:21;8.10;99.90
44190;DHT22;29856;52.144;5.430;2023-03-14T11:52:39;8.10;99.90
44190;DHT22;29856;52.144;5.430;2023-03-14T11:55:17;8.00;99.90
44190;DHT22;29856;52.144;5.430;2023-03-14T11:57:45;8.30;99.90
44190;DHT22;29856;52.144;5.430;2023-03-14T12:00:21;8.30;99.90
44190;DHT22;29856;52.144;5.430;2023-03-14T12:02:59;8.30;99.90
44190;DHT22;29856;52.144;5.430;2023-03-14T12:05:43;8.10;99.90
44190;DHT22;29856;52.144;5.430;2023-03-14T12:10:59;7.90;99.90
44190;DHT22;29856;52.144;5.430;2023-03-14T12:13:33;8.00;99.90
44190;DHT22;29856;52.144;5.430;2023-03-14T12:16:00;8.20;99.90
44190;DHT22;29856;52.144;5.430;2023-03-14T12:18:36;8.30;99.90
44190;DHT22;29856;52.144;5.430;2023-03-14T12:21:05;8.30;99.90
44190;DHT22;29856;52.144;5.430;2023-03-14T12:23:52;8.50;99.90
44190;DHT22;29856;52.144;5.430;2023-03-14T12:26:23;8.40;99.90
44190;DHT22;29856;52.144;5.430;2023-03-14T12:29:14;8.50;99.90
44190;DHT22;29856;52.144;5.430;2023-03-14T12:31:48;8.40;99.90
44190;DHT22;29856;52.144;5.430;2023-03-14T12:42:08;8.30;99.90
44190;DHT22;29856;52.144;5.430;2023-03-14T12:44:45;8.30;99.90
44190;DHT22;29856;52.144;5.430;2023-03-14T12:49:46;8.40;99.90
44190;DHT22;29856;52.144;5.430;2023-03-14T12:52:17;8.30;99.90
44190;DHT22;29856;52.144;5.430;2023-03-14T12:55:12;8.20;99.90
44190;DHT22;29856;52.144;5.430;2023-03-14T13:00:20;8.10;99.90
44190;DHT22;29856;52.144;5.430;2023-03-14T13:02:48;7.90;99.90
44190;DHT22;29856;52.144;5.430;2023-03-14T13:05:21;8.00;99.90
44190;DHT22;29856;52.144;5.430;2023-03-14T13:10:25;8.10;99.90
44190;DHT22;29856;52.144;5.430;2023-03-14T13:12:57;8.20;99.90
44190;DHT22;29856;52.144;5.430;2023-03-14T13:15:30;8.60;99.90
44190;DHT22;29856;52.144;5.430;2023-03-14T13:18:02;8.40;99.90
44190;DHT22;29856;52.144;5.430;2023-03-14T13:20:50;8.40;99.90
44190;DHT22;29856;52.144;5.430;2023-03-14T13:23:26;8.60;99.90
44190;DHT22;29856;52.144;5.430;2023-03-14T13:25:52;8.70;99.90
44190;DHT22;29856;52.144;5.430;2023-03-14T13:28:18;8.50;99.90
44190;DHT22;29856;52.144;5.430;2023-03-14T13:30:49;8.40;99.90
44190;DHT22;29856;52.144;5.430;2023-03-14T13:33:25;8.30;99.90
44190;DHT22;29856;52.144;5.430;2023-03-14T13:36:02;8.20;99.90
44190;DHT22;29856;52.144;5.430;2023-03-14T13:38:30;8.40;99.90
44190;DHT22;29856;52.144;5.430;2023-03-14T13:40:58;8.90;99.90
44190;DHT22;29856;52.144;5.430;2023-03-14T13:43:28;9.10;99.90
44190;DHT22;29856;52.144;5.430;2023-03-14T13:46:14;8.90;99.90
44190;DHT22;29856;52.144;5.430;2023-03-14T13:48:57;8.90;99.90
44190;DHT22;29856;52.144;5.430;2023-03-14T13:51:24;8.40;99.90
44190;DHT22;29856;52.144;5.430;2023-03-14T13:53:52;8.30;99.90
44190;DHT22;29856;52.144;5.430;2023-03-14T13:56:19;8.50;99.90
44190;DHT22;29856;52.144;5.430;2023-03-14T13:58:46;8.40;99.90
44190;DHT22;29856;52.144;5.430;2023-03-14T14:01:17;8.60;99.90
44190;DHT22;29856;52.144;5.430;2023-03-14T14:03:47;8.40;99.90
44190;DHT22;29856;52.144;5.430;2023-03-14T14:06:44;8.40;99.90
44190;DHT22;29856;52.144;5.430;2023-03-14T14:09:14;8.20;99.90
44190;DHT22;29856;52.144;5.430;2023-03-14T14:14:28;7.90;99.90
44190;DHT22;29856;52.144;5.430;2023-03-14T14:16:54;7.80;99.90
44190;DHT22;29856;52.144;5.430;2023-03-14T14:19:22;8.10;99.90
44190;DHT22;29856;52.144;5.430;2023-03-14T14:21:49;7.90;99.90
44190;DHT22;29856;52.144;5.430;2023-03-14T14:24:15;7.70;99.90
44190;DHT22;29856;52.144;5.430;2023-03-14T14:26:51;7.90;99.90
44190;DHT22;29856;52.144;5.430;2023-03-14T14:29:28;7.70;99.90
44190;DHT22;29856;52.144;5.430;2023-03-14T14:32:12;7.60;99.90
44190;DHT22;29856;52.144;5.430;2023-03-14T14:34:44;7.80;99.90
44190;DHT22;29856;52.144;5.430;2023-03-14T14:37:19;8.00;99.90
44190;DHT22;29856;52.144;5.430;2023-03-14T14:39:45;8.10;99.90
44190;DHT22;29856;52.144;5.430;2023-03-14T14:42:15;7.70;99.90
44190;DHT22;29856;52.144;5.430;2023-03-14T14:44:42;7.60;99.90
44190;DHT22;29856;52.144;5.430;2023-03-14T14:47:13;7.60;99.90
44190;DHT22;29856;52.144;5.430;2023-03-14T14:49:39;7.60;99.90
44190;DHT22;29856;52.144;5.430;2023-03-14T14:54:42;7.60;99.90
44190;DHT22;29856;52.144;5.430;2023-03-14T14:57:27;7.60;99.90
44190;DHT22;29856;52.144;5.430;2023-03-14T14:59:55;7.70;99.90
44190;DHT22;29856;52.144;5.430;2023-03-14T15:02:38;7.70;99.90
44190;DHT22;29856;52.144;5.430;2023-03-14T15:05:03;7.60;99.90
44190;DHT22;29856;52.144;5.430;2023-03-14T15:07:29;7.70;99.90
44190;DHT22;29856;52.144;5.430;2023-03-14T15:09:54;7.70;99.90
44190;DHT22;29856;52.144;5.430;2023-03-14T15:12:20;7.80;99.90
44190;DHT22;29856;52.144;5.430;2023-03-14T15:14:45;7.60;99.90
44190;DHT22;29856;52.144;5.430;2023-03-14T15:17:11;7.40;99.90
44190;DHT22;29856;52.144;5.430;2023-03-14T15:19:37;7.60;99.90
44190;DHT22;29856;52.144;5.430;2023-03-14T15:22:03;7.60;99.90
44190;DHT22;29856;52.144;5.430;2023-03-14T15:24:28;7.70;99.90
44190;DHT22;29856;52.144;5.430;2023-03-14T15:26:54;7.50;99.90
44190;DHT22;29856;52.144;5.430;2023-03-14T15:29:19;7.50;99.90
44190;DHT22;29856;52.144;5.430;2023-03-14T15:31:45;7.40;99.90
44190;DHT22;29856;52.144;5.430;2023-03-14T15:34:10;7.40;99.90
44190;DHT22;29856;52.144;5.430;2023-03-14T15:36:36;7.50;99.90
44190;DHT22;29856;52.144;5.430;2023-03-14T15:39:04;7.70;99.90
44190;DHT22;29856;52.144;5.430;2023-03-14T15:41:30;7.70;99.90
44190;DHT22;29856;52.144;5.430;2023-03-14T15:43:56;7.60;99.90
44190;DHT22;29856;52.144;5.430;2023-03-14T15:46:22;7.50;99.90
44190;DHT22;29856;52.144;5.430;2023-03-14T15:48:48;7.60;99.90
44190;DHT22;29856;52.144;5.430;2023-03-14T15:51:14;7.60;99.90
44190;DHT22;29856;52.144;5.430;2023-03-14T15:53:40;7.40;99.90
44190;DHT22;29856;52.144;5.430;2023-03-14T15:56:07;7.20;99.90
44190;DHT22;29856;52.144;5.430;2023-03-14T15:58:36;7.20;99.90
44190;DHT22;29856;52.144;5.430;2023-03-14T16:01:02;7.40;99.90
44190;DHT22;29856;52.144;5.430;2023-03-14T16:03:28;7.50;99.90
44190;DHT22;29856;52.144;5.430;2023-03-14T16:05:54;7.60;99.90
44190;DHT22;29856;52.144;5.430;2023-03-14T16:08:20;7.50;99.90
44190;DHT22;29856;52.144;5.430;2023-03-14T16:10:45;7.50;99.90
44190;DHT22;29856;52.144;5.430;2023-03-14T16:13:11;7.50;99.90
44190;DHT22;29856;52.144;5.430;2023-03-14T16:15:36;7.40;99.90
44190;DHT22;29856;52.144;5.430;2023-03-14T16:18:02;7.30;99.90
44190;DHT22;29856;52.144;5.430;2023-03-14T16:20:27;7.30;99.90
44190;DHT22;29856;52.144;5.430;2023-03-14T16:22:53;7.40;99.90
44190;DHT22;29856;52.144;5.430;2023-03-14T16:25:18;7.40;99.90
44190;DHT22;29856;52.144;5.430;2023-03-14T16:27:44;7.50;99.90
44190;DHT22;29856;52.144;5.430;2023-03-14T16:30:10;7.50;99.90
44190;DHT22;29856;52.144;5.430;2023-03-14T16:32:35;7.60;99.90
44190;DHT22;29856;52.144;5.430;2023-03-14T16:35:01;7.60;99.90
44190;DHT22;29856;52.144;5.430;2023-03-14T16:37:26;7.50;99.90